sensor_id;sensor_type;location;lat;lon;timestamp;P1;durP1;ratioP1;P2;durP2;ratioP2
27863;SDS011;15980;51.092;13.916;2024-03-02T00:07:16;59.88;;;29.42;;
27863;SDS011;15980;51.092;13.916;2024-03-02T00:17:18;63.85;;;29.40;;
27863;SDS011;15980;51.092;13.916;2024-03-02T00:27:24;67.07;;;28.30;;
27863;SDS011;15980;51.092;13.916;2024-03-02T00:37:24;66.32;;;30.17;;
27863;SDS011;15980;51.092;13.916;2024-03-02T00:47:24;68.47;;;30.25;;
27863;SDS011;15980;51.092;13.916;2024-03-02T00:57:25;66.82;;;30.45;;
27863;SDS011;15980;51.092;13.916;2024-03-02T01:07:28;70.43;;;31.35;;
27863;SDS011;15980;51.092;13.916;2024-03-02T01:17:29;68.22;;;31.15;;
27863;SDS011;15980;51.092;13.916;2024-03-02T01:27:29;73.63;;;32.47;;
27863;SDS011;15980;51.092;13.916;2024-03-02T01:37:29;69.65;;;31.15;;
27863;SDS011;15980;51.092;13.916;2024-03-02T01:47:29;78.18;;;31.80;;
27863;SDS011;15980;51.092;13.916;2024-03-02T01:57:30;73.45;;;30.38;;
27863;SDS011;15980;51.092;13.916;2024-03-02T02:07:30;77.05;;;32.55;;
27863;SDS011;15980;51.092;13.916;2024-03-02T02:17:30;85.28;;;32.83;;
27863;SDS011;15980;51.092;13.916;2024-03-02T02:27:31;86.90;;;33.13;;
27863;SDS011;15980;51.092;13.916;2024-03-02T02:37:31;95.05;;;33.97;;
27863;SDS011;15980;51.092;13.916;2024-03-02T02:47:31;85.10;;;34.97;;
27863;SDS011;15980;51.092;13.916;2024-03-02T02:57:32;94.90;;;33.63;;
27863;SDS011;15980;51.092;13.916;2024-03-02T03:07:33;100.28;;;34.40;;
27863;SDS011;15980;51.092;13.916;2024-03-02T03:17:34;98.40;;;35.63;;
27863;SDS011;15980;51.092;13.916;2024-03-02T03:27:34;112.97;;;38.05;;
27863;SDS011;15980;51.092;13.916;2024-03-02T03:37:34;105.95;;;35.78;;
27863;SDS011;15980;51.092;13.916;2024-03-02T03:47:35;99.20;;;36.13;;
27863;SDS011;15980;51.092;13.916;2024-03-02T03:57:35;100.13;;;33.95;;
27863;SDS011;15980;51.092;13.916;2024-03-02T04:07:36;99.95;;;33.10;;
27863;SDS011;15980;51.092;13.916;2024-03-02T04:17:37;86.65;;;30.98;;
27863;SDS011;15980;51.092;13.916;2024-03-02T04:27:38;99.78;;;33.47;;
27863;SDS011;15980;51.092;13.916;2024-03-02T04:37:38;96.68;;;32.28;;
27863;SDS011;15980;51.092;13.916;2024-03-02T04:47:38;107.05;;;33.10;;
27863;SDS011;15980;51.092;13.916;2024-03-02T04:57:39;91.30;;;31.58;;
27863;SDS011;15980;51.092;13.916;2024-03-02T05:07:39;88.53;;;30.23;;
27863;SDS011;15980;51.092;13.916;2024-03-02T05:17:40;93.13;;;32.67;;
27863;SDS011;15980;51.092;13.916;2024-03-02T05:27:41;97.87;;;34.13;;
27863;SDS011;15980;51.092;13.916;2024-03-02T05:37:41;108.78;;;34.45;;
27863;SDS011;15980;51.092;13.916;2024-03-02T05:47:42;109.63;;;33.85;;
27863;SDS011;15980;51.092;13.916;2024-03-02T05:57:42;106.60;;;34.55;;
27863;SDS011;15980;51.092;13.916;2024-03-02T06:07:42;108.57;;;35.15;;
27863;SDS011;15980;51.092;13.916;2024-03-02T06:17:43;97.93;;;34.60;;
27863;SDS011;15980;51.092;13.916;2024-03-02T06:27:43;102.20;;;35.00;;
27863;SDS011;15980;51.092;13.916;2024-03-02T06:37:43;100.32;;;35.20;;
27863;SDS011;15980;51.092;13.916;2024-03-02T06:47:44;95.85;;;32.75;;
27863;SDS011;15980;51.092;13.916;2024-03-02T06:57:44;99.70;;;34.97;;
27863;SDS011;15980;51.092;13.916;2024-03-02T07:07:44;105.75;;;35.97;;
27863;SDS011;15980;51.092;13.916;2024-03-02T07:17:44;103.60;;;34.25;;
27863;SDS011;15980;51.092;13.916;2024-03-02T07:27:45;99.72;;;33.90;;
27863;SDS011;15980;51.092;13.916;2024-03-02T07:37:45;105.85;;;33.47;;
27863;SDS011;15980;51.092;13.916;2024-03-02T07:47:46;103.60;;;33.25;;
27863;SDS011;15980;51.092;13.916;2024-03-02T07:57:46;99.32;;;29.52;;
27863;SDS011;15980;51.092;13.916;2024-03-02T08:07:47;89.03;;;29.08;;
27863;SDS011;15980;51.092;13.916;2024-03-02T08:17:47;73.57;;;24.80;;
27863;SDS011;15980;51.092;13.916;2024-03-02T08:27:48;75.18;;;23.80;;
27863;SDS011;15980;51.092;13.916;2024-03-02T08:37:48;79.15;;;24.00;;
27863;SDS011;15980;51.092;13.916;2024-03-02T08:47:48;66.65;;;24.98;;
27863;SDS011;15980;51.092;13.916;2024-03-02T08:57:49;67.32;;;24.02;;
27863;SDS011;15980;51.092;13.916;2024-03-02T09:07:49;69.28;;;23.90;;
27863;SDS011;15980;51.092;13.916;2024-03-02T09:17:49;72.70;;;25.05;;
27863;SDS011;15980;51.092;13.916;2024-03-02T09:27:50;71.72;;;24.73;;
27863;SDS011;15980;51.092;13.916;2024-03-02T09:37:50;76.00;;;24.73;;
27863;SDS011;15980;51.092;13.916;2024-03-02T09:47:50;67.32;;;25.15;;
27863;SDS011;15980;51.092;13.916;2024-03-02T09:57:51;69.28;;;23.80;;
27863;SDS011;15980;51.092;13.916;2024-03-02T10:08:00;66.32;;;23.67;;
27863;SDS011;15980;51.092;13.916;2024-03-02T10:18:02;60.53;;;23.60;;
27863;SDS011;15980;51.092;13.916;2024-03-02T10:28:03;60.05;;;22.27;;
27863;SDS011;15980;51.092;13.916;2024-03-02T10:38:03;53.13;;;19.63;;
27863;SDS011;15980;51.092;13.916;2024-03-02T10:48:04;42.45;;;17.73;;
27863;SDS011;15980;51.092;13.916;2024-03-02T10:58:05;39.35;;;16.42;;
27863;SDS011;15980;51.092;13.916;2024-03-02T11:08:07;41.25;;;15.68;;
27863;SDS011;15980;51.092;13.916;2024-03-02T11:18:12;41.28;;;17.30;;
27863;SDS011;15980;51.092;13.916;2024-03-02T11:28:14;33.63;;;12.97;;
27863;SDS011;15980;51.092;13.916;2024-03-02T11:38:14;37.10;;;16.00;;
27863;SDS011;15980;51.092;13.916;2024-03-02T11:48:14;46.60;;;16.75;;
27863;SDS011;15980;51.092;13.916;2024-03-02T11:58:16;43.13;;;15.80;;
27863;SDS011;15980;51.092;13.916;2024-03-02T12:08:16;36.13;;;15.77;;
27863;SDS011;15980;51.092;13.916;2024-03-02T12:18:17;35.58;;;15.43;;
27863;SDS011;15980;51.092;13.916;2024-03-02T12:28:17;36.30;;;14.73;;
27863;SDS011;15980;51.092;13.916;2024-03-02T12:38:19;38.42;;;16.13;;
27863;SDS011;15980;51.092;13.916;2024-03-02T12:48:19;25.80;;;12.18;;
27863;SDS011;15980;51.092;13.916;2024-03-02T12:58:19;25.70;;;11.55;;
27863;SDS011;15980;51.092;13.916;2024-03-02T13:08:20;29.00;;;12.77;;
27863;SDS011;15980;51.092;13.916;2024-03-02T13:18:21;56.33;;;20.70;;
27863;SDS011;15980;51.092;13.916;2024-03-02T13:28:22;62.72;;;23.15;;
27863;SDS011;15980;51.092;13.916;2024-03-02T13:38:22;23.95;;;11.60;;
27863;SDS011;15980;51.092;13.916;2024-03-02T13:48:22;28.17;;;12.48;;
27863;SDS011;15980;51.092;13.916;2024-03-02T13:58:23;28.25;;;11.63;;
27863;SDS011;15980;51.092;13.916;2024-03-02T14:08:23;24.98;;;10.43;;
27863;SDS011;15980;51.092;13.916;2024-03-02T14:18:23;28.30;;;11.88;;
27863;SDS011;15980;51.092;13.916;2024-03-02T14:28:24;22.52;;;10.95;;
27863;SDS011;15980;51.092;13.916;2024-03-02T14:38:24;24.45;;;10.88;;
27863;SDS011;15980;51.092;13.916;2024-03-02T14:48:24;22.45;;;10.90;;
27863;SDS011;15980;51.092;13.916;2024-03-02T14:58:25;21.13;;;10.88;;
27863;SDS011;15980;51.092;13.916;2024-03-02T15:08:25;28.00;;;12.05;;
27863;SDS011;15980;51.092;13.916;2024-03-02T15:18:26;25.92;;;12.35;;
27863;SDS011;15980;51.092;13.916;2024-03-02T15:28:26;28.55;;;12.95;;
27863;SDS011;15980;51.092;13.916;2024-03-02T15:38:26;25.42;;;13.27;;
27863;SDS011;15980;51.092;13.916;2024-03-02T15:48:27;26.30;;;13.57;;
27863;SDS011;15980;51.092;13.916;2024-03-02T15:58:27;34.03;;;15.23;;
27863;SDS011;15980;51.092;13.916;2024-03-02T16:08:27;32.70;;;14.68;;
27863;SDS011;15980;51.092;13.916;2024-03-02T16:18:28;30.42;;;15.85;;
27863;SDS011;15980;51.092;13.916;2024-03-02T16:28:28;41.25;;;17.95;;
27863;SDS011;15980;51.092;13.916;2024-03-02T16:38:28;32.03;;;16.83;;
27863;SDS011;15980;51.092;13.916;2024-03-02T16:48:29;49.15;;;20.90;;
27863;SDS011;15980;51.092;13.916;2024-03-02T16:58:29;51.97;;;23.38;;
27863;SDS011;15980;51.092;13.916;2024-03-02T17:08:29;36.88;;;17.70;;
27863;SDS011;15980;51.092;13.916;2024-03-02T17:18:30;40.83;;;19.40;;
27863;SDS011;15980;51.092;13.916;2024-03-02T17:28:30;38.67;;;19.40;;
27863;SDS011;15980;51.092;13.916;2024-03-02T17:38:30;35.50;;;16.63;;
27863;SDS011;15980;51.092;13.916;2024-03-02T17:48:31;40.77;;;17.30;;
27863;SDS011;15980;51.092;13.916;2024-03-02T17:58:32;42.92;;;22.13;;
27863;SDS011;15980;51.092;13.916;2024-03-02T18:08:32;43.03;;;19.30;;
27863;SDS011;15980;51.092;13.916;2024-03-02T18:18:32;77.13;;;28.17;;
27863;SDS011;15980;51.092;13.916;2024-03-02T18:28:32;64.18;;;24.92;;
27863;SDS011;15980;51.092;13.916;2024-03-02T18:38:33;44.40;;;20.00;;
27863;SDS011;15980;51.092;13.916;2024-03-02T18:48:33;48.38;;;21.98;;
27863;SDS011;15980;51.092;13.916;2024-03-02T18:58:33;45.38;;;21.60;;
27863;SDS011;15980;51.092;13.916;2024-03-02T19:08:34;47.15;;;20.83;;
27863;SDS011;15980;51.092;13.916;2024-03-02T19:18:34;46.22;;;21.60;;
27863;SDS011;15980;51.092;13.916;2024-03-02T19:28:34;56.33;;;23.35;;
27863;SDS011;15980;51.092;13.916;2024-03-02T19:38:35;58.42;;;24.27;;
27863;SDS011;15980;51.092;13.916;2024-03-02T19:48:35;62.83;;;24.38;;
27863;SDS011;15980;51.092;13.916;2024-03-02T19:58:35;77.65;;;27.55;;
27863;SDS011;15980;51.092;13.916;2024-03-02T20:08:35;68.80;;;30.30;;
27863;SDS011;15980;51.092;13.916;2024-03-02T20:18:37;65.43;;;27.73;;
27863;SDS011;15980;51.092;13.916;2024-03-02T20:28:37;88.63;;;31.73;;
27863;SDS011;15980;51.092;13.916;2024-03-02T20:38:38;79.13;;;30.42;;
27863;SDS011;15980;51.092;13.916;2024-03-02T20:48:38;73.07;;;29.70;;
27863;SDS011;15980;51.092;13.916;2024-03-02T20:58:38;74.75;;;30.80;;
27863;SDS011;15980;51.092;13.916;2024-03-02T21:08:38;80.18;;;31.55;;
27863;SDS011;15980;51.092;13.916;2024-03-02T21:18:39;69.18;;;29.42;;
27863;SDS011;15980;51.092;13.916;2024-03-02T21:28:39;72.32;;;30.02;;
27863;SDS011;15980;51.092;13.916;2024-03-02T21:38:39;72.28;;;28.60;;
27863;SDS011;15980;51.092;13.916;2024-03-02T21:48:40;68.45;;;28.85;;
27863;SDS011;15980;51.092;13.916;2024-03-02T21:58:40;72.60;;;29.90;;
27863;SDS011;15980;51.092;13.916;2024-03-02T22:08:40;66.95;;;27.15;;
27863;SDS011;15980;51.092;13.916;2024-03-02T22:18:40;61.75;;;27.15;;
27863;SDS011;15980;51.092;13.916;2024-03-02T22:28:41;60.08;;;28.20;;
27863;SDS011;15980;51.092;13.916;2024-03-02T22:38:41;60.05;;;25.90;;
27863;SDS011;15980;51.092;13.916;2024-03-02T22:48:41;63.42;;;25.60;;
27863;SDS011;15980;51.092;13.916;2024-03-02T22:58:42;55.17;;;23.90;;
27863;SDS011;15980;51.092;13.916;2024-03-02T23:08:42;52.78;;;22.58;;
27863;SDS011;15980;51.092;13.916;2024-03-02T23:18:43;46.47;;;21.17;;
27863;SDS011;15980;51.092;13.916;2024-03-02T23:28:43;49.72;;;21.00;;
27863;SDS011;15980;51.092;13.916;2024-03-02T23:38:43;46.67;;;20.15;;
27863;SDS011;15980;51.092;13.916;2024-03-02T23:48:43;41.20;;;19.08;;
27863;SDS011;15980;51.092;13.916;2024-03-02T23:58:44;40.50;;;18.98;;
